Leandra — V2EB4 — position and weather

sailwx.info

Track history (hours):
 
Tides and Currents Weather Stations Pressure Air Temp Water Temp Dewpoint Dewpoint Depression Visibility Wind Speed Wind Dir Waves Ship Positions

Leandra

Last reported at 2015-Feb-01 13:34 UTC. Time now 2015-Mar-03 15:09 UTC.
Position N 30°60' E 122°29'.
Warning: this ship's position is 30 days out of date.

Length 146 m; draft 6.3 m.

Type: Cargo ship. MMSI: 305375000.

Date/timePositionNaut miles runAvg speedWind from/ knotsBaromVisibWave heightAir tempDewpointWater temp
2015-Feb-01 13:34N 30°60' E 122°29'1111.3
2015-Feb-01 12:33N 31°02' E 122°16'9 9.2
2015-Feb-01 11:33N 31°04' E 122°05'9 9.3
2015-Feb-01 10:34N 31°08' E 121°55'1413.7
2015-Feb-01 09:33N 31°17' E 121°44'1211.8
2015-Feb-01 08:33N 31°24' E 121°32'4 4.3
2015-Feb-01 07:33N 31°19' E 121°34'5 5.3
2015-Feb-01 06:34N 31°15' E 121°30'5 5.1
2015-Feb-01 05:33N 31°10' E 121°28'5 4.7
2015-Feb-01 04:33N 31°06' E 121°28'0 0.0
2015-Feb-01 03:32N 31°06' E 121°28'0 0.0
2015-Feb-01 02:32N 31°06' E 121°28'0 0.0
2015-Feb-01 01:32N 31°06' E 121°28'0 0.0
2015-Feb-01 00:32N 31°06' E 121°28'0 0.0
2015-Jan-31 23:32N 31°06' E 121°28'0 0.0
2015-Jan-31 22:32N 31°06' E 121°28'0 0.0
2015-Jan-31 21:32N 31°06' E 121°28'0 0.0
2015-Jan-31 20:32N 31°06' E 121°28'0 0.0
2015-Jan-31 19:32N 31°06' E 121°28'0 0.0
2015-Jan-31 18:32N 31°06' E 121°28'0 0.0
2015-Jan-31 17:32N 31°06' E 121°28'0 0.0
2015-Jan-31 16:32N 31°06' E 121°28'0 0.0
2015-Jan-31 15:32N 31°06' E 121°28'0 0.0
2015-Jan-31 14:32N 31°06' E 121°28'0 0.0
2015-Jan-31 13:32N 31°06' E 121°28'0 0.0
2015-Jan-31 12:32N 31°06' E 121°28'0 0.0
2015-Jan-31 11:32N 31°06' E 121°28'0 0.0
2015-Jan-31 10:32N 31°06' E 121°28'0 0.0
2015-Jan-31 09:32N 31°06' E 121°28'0 0.0
2015-Jan-31 08:32N 31°06' E 121°28'0 0.0
2015-Jan-31 07:32N 31°06' E 121°28'0 0.0
2015-Jan-31 06:32N 31°06' E 121°28'0 0.0
2015-Jan-31 05:29N 31°06' E 121°28'0 0.0
2015-Jan-31 04:32N 31°06' E 121°28'0 0.0
2015-Jan-31 03:29N 31°06' E 121°28'0 0.0
2015-Jan-31 02:32N 31°06' E 121°28'0 0.0
2015-Jan-31 01:32N 31°06' E 121°28'0 0.0
2015-Jan-31 00:32N 31°06' E 121°28'0 0.0
2015-Jan-30 23:32N 31°06' E 121°28'0 0.0
2015-Jan-30 22:33N 31°06' E 121°28'0 0.0
2015-Jan-30 21:33N 31°06' E 121°28'0 0.0
2015-Jan-30 20:33N 31°06' E 121°28'0 0.0
2015-Jan-30 19:33N 31°06' E 121°28'0 0.0
2015-Jan-30 18:33N 31°06' E 121°28'0 0.0
2015-Jan-30 17:33N 31°06' E 121°28'0 0.0
2015-Jan-30 16:33N 31°06' E 121°28'0 0.0
2015-Jan-30 15:33N 31°06' E 121°28'0 0.0
2015-Jan-30 14:33N 31°06' E 121°28'0 0.0
2015-Jan-30 13:33N 31°06' E 121°28'0 0.0
2015-Jan-30 12:33N 31°06' E 121°28'0 0.0
2015-Jan-30 11:33N 31°06' E 121°28'0 0.0
2015-Jan-30 10:33N 31°06' E 121°28'0 0.0
2015-Jan-30 09:30N 31°06' E 121°28'0 0.0
2015-Jan-30 08:33N 31°06' E 121°28'0 0.0
2015-Jan-30 07:33N 31°06' E 121°28'0 0.0
2015-Jan-30 06:33N 31°06' E 121°28'0 0.0
2015-Jan-30 05:33N 31°06' E 121°28'0 0.0
2015-Jan-30 04:33N 31°06' E 121°28'0 0.0
2015-Jan-30 03:33N 31°06' E 121°28'0 0.0
2015-Jan-30 02:33N 31°06' E 121°28'0 0.0
2015-Jan-30 01:33N 31°06' E 121°28'0 0.0
2015-Jan-30 00:33N 31°06' E 121°28'0 0.0
2015-Jan-29 23:33N 31°06' E 121°28'0 0.0
2015-Jan-29 22:33N 31°06' E 121°28'0 0.0
2015-Jan-29 21:33N 31°06' E 121°28'0 0.0
2015-Jan-29 20:33N 31°06' E 121°28'0 0.0
2015-Jan-29 19:33N 31°06' E 121°28'0 0.0
2015-Jan-29 18:33N 31°06' E 121°28'0 0.0
2015-Jan-29 17:33N 31°06' E 121°28'0 0.0
2015-Jan-29 16:33N 31°06' E 121°28'0 0.0
2015-Jan-29 15:33N 31°06' E 121°28'0 0.0
2015-Jan-29 14:33N 31°06' E 121°28'0 0.0
2015-Jan-29 13:33N 31°06' E 121°28'0 0.0
2015-Jan-29 12:33N 31°06' E 121°28'0 0.0
2015-Jan-29 11:33N 31°06' E 121°28'0 0.0
2015-Jan-29 10:33N 31°06' E 121°28'0 0.0
2015-Jan-29 09:33N 31°06' E 121°28'0 0.0
2015-Jan-29 08:33N 31°06' E 121°28'0 0.0
2015-Jan-29 07:33N 31°06' E 121°28'0 0.0
2015-Jan-29 06:33N 31°06' E 121°28'0 0.0
2015-Jan-29 05:33N 31°06' E 121°28'0 0.0
2015-Jan-29 04:33N 31°06' E 121°28'0 0.0
2015-Jan-29 03:33N 31°06' E 121°28'0 0.0
2015-Jan-29 02:33N 31°06' E 121°28'0 0.0
2015-Jan-29 01:33N 31°06' E 121°28'0 0.0
2015-Jan-29 00:33N 31°06' E 121°28'0 0.0
2015-Jan-28 23:33N 31°06' E 121°28'0 0.0
2015-Jan-28 22:33N 31°06' E 121°28'0 0.0
2015-Jan-28 21:33N 31°06' E 121°28'0 0.0
2015-Jan-28 20:33N 31°06' E 121°28'0 0.0
2015-Jan-28 19:33N 31°06' E 121°28'0 0.0
2015-Jan-28 18:33N 31°06' E 121°28'0 0.0
2015-Jan-28 17:30N 31°06' E 121°28'0 0.0
2015-Jan-28 16:33N 31°06' E 121°28'0 0.0
2015-Jan-28 15:30N 31°06' E 121°28'0 0.0
2015-Jan-28 14:30N 31°06' E 121°28'0 0.0
2015-Jan-28 13:33N 31°06' E 121°28'0 0.0
2015-Jan-28 12:33N 31°06' E 121°28'0 0.1
2015-Jan-28 11:33N 31°06' E 121°28'0 0.0
2015-Jan-28 10:33N 31°06' E 121°28'0 0.0
2015-Jan-28 09:33N 31°06' E 121°28'0 0.0
2015-Jan-28 08:33N 31°06' E 121°28'0 0.0
2015-Jan-28 07:33N 31°06' E 121°28'0 0.0
2015-Jan-28 06:33N 31°06' E 121°28'0 0.1
2015-Jan-28 05:33N 31°06' E 121°28'0 0.1
2015-Jan-28 04:32N 31°06' E 121°28'0 0.0
2015-Jan-28 03:32N 31°06' E 121°28'0 0.0
2015-Jan-28 02:32N 31°06' E 121°28'0 0.0
2015-Jan-28 01:32N 31°06' E 121°28'0 0.0
2015-Jan-28 00:31N 31°06' E 121°28'0 0.0
2015-Jan-27 23:31N 31°06' E 121°28'0 0.0
2015-Jan-27 22:31N 31°06' E 121°28'0 0.0
2015-Jan-27 21:31N 31°06' E 121°28'0 0.0
2015-Jan-27 20:31N 31°06' E 121°28'0 0.0
2015-Jan-27 19:31N 31°06' E 121°28'0 0.0
2015-Jan-27 18:31N 31°06' E 121°28'0 0.0
2015-Jan-27 17:31N 31°06' E 121°28'0 0.0
2015-Jan-27 16:31N 31°06' E 121°28'0 0.0
2015-Jan-27 15:31N 31°06' E 121°28'0 0.0
2015-Jan-27 14:31N 31°06' E 121°28'0 0.0
2015-Jan-27 13:31N 31°06' E 121°28'0 0.0
2015-Jan-27 12:31N 31°06' E 121°28'0 0.0
2015-Jan-27 11:31N 31°06' E 121°28'0 0.0
2015-Jan-27 10:31N 31°06' E 121°28'0 0.0
2015-Jan-27 09:31N 31°06' E 121°28'0 0.0
2015-Jan-27 08:31N 31°06' E 121°28'0 0.0
2015-Jan-27 07:31N 31°06' E 121°28'0 0.0
2015-Jan-27 06:31N 31°06' E 121°28'0 0.0
2015-Jan-27 05:31N 31°06' E 121°28'0 0.0
2015-Jan-27 04:31N 31°06' E 121°28'0 0.0
2015-Jan-27 03:31N 31°06' E 121°28'0 0.0
2015-Jan-27 02:31N 31°06' E 121°28'0 0.0
2015-Jan-27 01:33N 31°06' E 121°28'3 3.3
2015-Jan-27 00:34N 31°09' E 121°27'6 5.5
2015-Jan-26 23:33N 31°14' E 121°29'5 5.3
2015-Jan-26 22:33N 31°18' E 121°33'6 5.7
2015-Jan-26 21:33N 31°23' E 121°30'7 7.4
2015-Jan-26 20:33N 31°21' E 121°39'1312.5
2015-Jan-26 19:33N 31°12' E 121°49'1312.7
2015-Jan-26 18:34N 31°05' E 122°01'10 9.6
2015-Jan-26 17:33N 31°03' E 122°12'8 8.3
2015-Jan-26 16:33N 31°02' E 122°22'6 5.8
2015-Jan-26 15:33N 31°01' E 122°28'11 0.8
2015-Jan-26 02:08N 31°03' E 122°40'32410.2
2015-Jan-24 18:23N 25°49' E 121°10'2613.6
2015-Jan-24 16:26N 25°26' E 120°55'1213.1
2015-Jan-24 15:32N 25°16' E 120°49'1612.9
2015-Jan-24 14:18N 25°01' E 120°42'1013.5
2015-Jan-24 13:32N 24°52' E 120°37'2813.6
2015-Jan-24 11:27N 24°25' E 120°28'9 4.4
2015-Jan-24 09:20N 24°16' E 120°31'0 0.0
2015-Jan-24 08:32N 24°16' E 120°31'7 0.8
2015-Jan-23 23:27N 24°16' E 120°24'2111.2
2015-Jan-23 21:33N 24°01' E 120°07'1211.8
2015-Jan-23 20:33N 23°51' E 119°59'1311.1
2015-Jan-23 19:24N 23°39' E 119°56'4611.2
2015-Jan-23 15:19N 22°55' E 119°41'1013.1
2015-Jan-23 14:32N 22°50' E 119°32'1313.1
2015-Jan-23 13:33N 22°43' E 119°20'1313.3
2015-Jan-23 12:33N 22°35' E 119°08'  
Track history (hours):
 
Tides and Currents Weather Stations Pressure Air Temp Water Temp Dewpoint Dewpoint Depression Visibility Wind Speed Wind Dir Waves Ship Positions

Leandra

Last reported at 2015-Feb-01 13:34 UTC. Time now 2015-Mar-03 15:09 UTC.
Position N 30°60' E 122°29'.
Warning: this ship's position is 30 days out of date.

Length 146 m; draft 6.3 m.

Type: Cargo ship. MMSI: 305375000.

Date/timePositionNaut miles runAvg speedWind from/ knotsBaromVisibWave heightAir tempDewpointWater temp
2015-Feb-01 13:34N 30°60' E 122°29'1111.3
2015-Feb-01 12:33N 31°02' E 122°16'9 9.2
2015-Feb-01 11:33N 31°04' E 122°05'9 9.3
2015-Feb-01 10:34N 31°08' E 121°55'1413.7
2015-Feb-01 09:33N 31°17' E 121°44'1211.8
2015-Feb-01 08:33N 31°24' E 121°32'4 4.3
2015-Feb-01 07:33N 31°19' E 121°34'5 5.3
2015-Feb-01 06:34N 31°15' E 121°30'5 5.1
2015-Feb-01 05:33N 31°10' E 121°28'5 4.7
2015-Feb-01 04:33N 31°06' E 121°28'0 0.0
2015-Feb-01 03:32N 31°06' E 121°28'0 0.0
2015-Feb-01 02:32N 31°06' E 121°28'0 0.0
2015-Feb-01 01:32N 31°06' E 121°28'0 0.0
2015-Feb-01 00:32N 31°06' E 121°28'0 0.0
2015-Jan-31 23:32N 31°06' E 121°28'0 0.0
2015-Jan-31 22:32N 31°06' E 121°28'0 0.0
2015-Jan-31 21:32N 31°06' E 121°28'0 0.0
2015-Jan-31 20:32N 31°06' E 121°28'0 0.0
2015-Jan-31 19:32N 31°06' E 121°28'0 0.0
2015-Jan-31 18:32N 31°06' E 121°28'0 0.0
2015-Jan-31 17:32N 31°06' E 121°28'0 0.0
2015-Jan-31 16:32N 31°06' E 121°28'0 0.0
2015-Jan-31 15:32N 31°06' E 121°28'0 0.0
2015-Jan-31 14:32N 31°06' E 121°28'0 0.0
2015-Jan-31 13:32N 31°06' E 121°28'0 0.0
2015-Jan-31 12:32N 31°06' E 121°28'0 0.0
2015-Jan-31 11:32N 31°06' E 121°28'0 0.0
2015-Jan-31 10:32N 31°06' E 121°28'0 0.0
2015-Jan-31 09:32N 31°06' E 121°28'0 0.0
2015-Jan-31 08:32N 31°06' E 121°28'0 0.0
2015-Jan-31 07:32N 31°06' E 121°28'0 0.0
2015-Jan-31 06:32N 31°06' E 121°28'0 0.0
2015-Jan-31 05:29N 31°06' E 121°28'0 0.0
2015-Jan-31 04:32N 31°06' E 121°28'0 0.0
2015-Jan-31 03:29N 31°06' E 121°28'0 0.0
2015-Jan-31 02:32N 31°06' E 121°28'0 0.0
2015-Jan-31 01:32N 31°06' E 121°28'0 0.0
2015-Jan-31 00:32N 31°06' E 121°28'0 0.0
2015-Jan-30 23:32N 31°06' E 121°28'0 0.0
2015-Jan-30 22:33N 31°06' E 121°28'0 0.0
2015-Jan-30 21:33N 31°06' E 121°28'0 0.0
2015-Jan-30 20:33N 31°06' E 121°28'0 0.0
2015-Jan-30 19:33N 31°06' E 121°28'0 0.0
2015-Jan-30 18:33N 31°06' E 121°28'0 0.0
2015-Jan-30 17:33N 31°06' E 121°28'0 0.0
2015-Jan-30 16:33N 31°06' E 121°28'0 0.0
2015-Jan-30 15:33N 31°06' E 121°28'0 0.0
2015-Jan-30 14:33N 31°06' E 121°28'0 0.0
2015-Jan-30 13:33N 31°06' E 121°28'0 0.0
2015-Jan-30 12:33N 31°06' E 121°28'0 0.0
2015-Jan-30 11:33N 31°06' E 121°28'0 0.0
2015-Jan-30 10:33N 31°06' E 121°28'0 0.0
2015-Jan-30 09:30N 31°06' E 121°28'0 0.0
2015-Jan-30 08:33N 31°06' E 121°28'0 0.0
2015-Jan-30 07:33N 31°06' E 121°28'0 0.0
2015-Jan-30 06:33N 31°06' E 121°28'0 0.0
2015-Jan-30 05:33N 31°06' E 121°28'0 0.0
2015-Jan-30 04:33N 31°06' E 121°28'0 0.0
2015-Jan-30 03:33N 31°06' E 121°28'0 0.0
2015-Jan-30 02:33N 31°06' E 121°28'0 0.0
2015-Jan-30 01:33N 31°06' E 121°28'0 0.0
2015-Jan-30 00:33N 31°06' E 121°28'0 0.0
2015-Jan-29 23:33N 31°06' E 121°28'0 0.0
2015-Jan-29 22:33N 31°06' E 121°28'0 0.0
2015-Jan-29 21:33N 31°06' E 121°28'0 0.0
2015-Jan-29 20:33N 31°06' E 121°28'0 0.0
2015-Jan-29 19:33N 31°06' E 121°28'0 0.0
2015-Jan-29 18:33N 31°06' E 121°28'0 0.0
2015-Jan-29 17:33N 31°06' E 121°28'0 0.0
2015-Jan-29 16:33N 31°06' E 121°28'0 0.0
2015-Jan-29 15:33N 31°06' E 121°28'0 0.0
2015-Jan-29 14:33N 31°06' E 121°28'0 0.0
2015-Jan-29 13:33N 31°06' E 121°28'0 0.0
2015-Jan-29 12:33N 31°06' E 121°28'0 0.0
2015-Jan-29 11:33N 31°06' E 121°28'0 0.0
2015-Jan-29 10:33N 31°06' E 121°28'0 0.0
2015-Jan-29 09:33N 31°06' E 121°28'0 0.0
2015-Jan-29 08:33N 31°06' E 121°28'0 0.0
2015-Jan-29 07:33N 31°06' E 121°28'0 0.0
2015-Jan-29 06:33N 31°06' E 121°28'0 0.0
2015-Jan-29 05:33N 31°06' E 121°28'0 0.0
2015-Jan-29 04:33N 31°06' E 121°28'0 0.0
2015-Jan-29 03:33N 31°06' E 121°28'0 0.0
2015-Jan-29 02:33N 31°06' E 121°28'0 0.0
2015-Jan-29 01:33N 31°06' E 121°28'0 0.0
2015-Jan-29 00:33N 31°06' E 121°28'0 0.0
2015-Jan-28 23:33N 31°06' E 121°28'0 0.0
2015-Jan-28 22:33N 31°06' E 121°28'0 0.0
2015-Jan-28 21:33N 31°06' E 121°28'0 0.0
2015-Jan-28 20:33N 31°06' E 121°28'0 0.0
2015-Jan-28 19:33N 31°06' E 121°28'0 0.0
2015-Jan-28 18:33N 31°06' E 121°28'0 0.0
2015-Jan-28 17:30N 31°06' E 121°28'0 0.0
2015-Jan-28 16:33N 31°06' E 121°28'0 0.0
2015-Jan-28 15:30N 31°06' E 121°28'0 0.0
2015-Jan-28 14:30N 31°06' E 121°28'0 0.0
2015-Jan-28 13:33N 31°06' E 121°28'0 0.0
2015-Jan-28 12:33N 31°06' E 121°28'0 0.1
2015-Jan-28 11:33N 31°06' E 121°28'0 0.0
2015-Jan-28 10:33N 31°06' E 121°28'0 0.0
2015-Jan-28 09:33N 31°06' E 121°28'0 0.0
2015-Jan-28 08:33N 31°06' E 121°28'0 0.0
2015-Jan-28 07:33N 31°06' E 121°28'0 0.0
2015-Jan-28 06:33N 31°06' E 121°28'0 0.1
2015-Jan-28 05:33N 31°06' E 121°28'0 0.1
2015-Jan-28 04:32N 31°06' E 121°28'0 0.0
2015-Jan-28 03:32N 31°06' E 121°28'0 0.0
2015-Jan-28 02:32N 31°06' E 121°28'0 0.0
2015-Jan-28 01:32N 31°06' E 121°28'0 0.0
2015-Jan-28 00:31N 31°06' E 121°28'0 0.0
2015-Jan-27 23:31N 31°06' E 121°28'0 0.0
2015-Jan-27 22:31N 31°06' E 121°28'0 0.0
2015-Jan-27 21:31N 31°06' E 121°28'0 0.0
2015-Jan-27 20:31N 31°06' E 121°28'0 0.0
2015-Jan-27 19:31N 31°06' E 121°28'0 0.0
2015-Jan-27 18:31N 31°06' E 121°28'0 0.0
2015-Jan-27 17:31N 31°06' E 121°28'0 0.0
2015-Jan-27 16:31N 31°06' E 121°28'0 0.0
2015-Jan-27 15:31N 31°06' E 121°28'0 0.0
2015-Jan-27 14:31N 31°06' E 121°28'0 0.0
2015-Jan-27 13:31N 31°06' E 121°28'0 0.0
2015-Jan-27 12:31N 31°06' E 121°28'0 0.0
2015-Jan-27 11:31N 31°06' E 121°28'0 0.0
2015-Jan-27 10:31N 31°06' E 121°28'0 0.0
2015-Jan-27 09:31N 31°06' E 121°28'0 0.0
2015-Jan-27 08:31N 31°06' E 121°28'0 0.0
2015-Jan-27 07:31N 31°06' E 121°28'0 0.0
2015-Jan-27 06:31N 31°06' E 121°28'0 0.0
2015-Jan-27 05:31N 31°06' E 121°28'0 0.0
2015-Jan-27 04:31N 31°06' E 121°28'0 0.0
2015-Jan-27 03:31N 31°06' E 121°28'0 0.0
2015-Jan-27 02:31N 31°06' E 121°28'0 0.0
2015-Jan-27 01:33N 31°06' E 121°28'3 3.3
2015-Jan-27 00:34N 31°09' E 121°27'6 5.5
2015-Jan-26 23:33N 31°14' E 121°29'5 5.3
2015-Jan-26 22:33N 31°18' E 121°33'6 5.7
2015-Jan-26 21:33N 31°23' E 121°30'7 7.4
2015-Jan-26 20:33N 31°21' E 121°39'1312.5
2015-Jan-26 19:33N 31°12' E 121°49'1312.7
2015-Jan-26 18:34N 31°05' E 122°01'10 9.6
2015-Jan-26 17:33N 31°03' E 122°12'8 8.3
2015-Jan-26 16:33N 31°02' E 122°22'6 5.8
2015-Jan-26 15:33N 31°01' E 122°28'11 0.8
2015-Jan-26 02:08N 31°03' E 122°40'32410.2
2015-Jan-24 18:23N 25°49' E 121°10'2613.6
2015-Jan-24 16:26N 25°26' E 120°55'1213.1
2015-Jan-24 15:32N 25°16' E 120°49'1612.9
2015-Jan-24 14:18N 25°01' E 120°42'1013.5
2015-Jan-24 13:32N 24°52' E 120°37'2813.6
2015-Jan-24 11:27N 24°25' E 120°28'9 4.4
2015-Jan-24 09:20N 24°16' E 120°31'0 0.0
2015-Jan-24 08:32N 24°16' E 120°31'7 0.8
2015-Jan-23 23:27N 24°16' E 120°24'2111.2
2015-Jan-23 21:33N 24°01' E 120°07'1211.8
2015-Jan-23 20:33N 23°51' E 119°59'1311.1
2015-Jan-23 19:24N 23°39' E 119°56'4611.2
2015-Jan-23 15:19N 22°55' E 119°41'1013.1
2015-Jan-23 14:32N 22°50' E 119°32'1313.1
2015-Jan-23 13:33N 22°43' E 119°20'1313.3
2015-Jan-23 12:33N 22°35' E 119°08'  

Dump ship's entire track history